Time;durP1;ratioP1;P1;durP2;ratioP2;P2;SDS_P1;SDS_P2;PMS_P1;PMS_P2;Temp;Humidity;BMP_temperature;BMP_pressure;BME280_temperature;BME280_humidity;BME280_pressure;Samples;Min_cycle;Max_cycle;Signal;HPM_P1;HPM_P2
2022/06/15 00:01:49;;;;;;;5.40;2.15;;;;;;;16.04;66.24;101196.41;5032500;28;20376;-50
2022/06/15 00:04:18;;;;;;;4.25;1.30;;;;;;;16.03;65.99;101198.16;5033193;28;20046;-53
2022/06/15 00:09:31;;;;;;;5.97;1.40;;;;;;;16.01;66.29;101178.19;5032405;28;20058;-51
2022/06/15 00:12:15;;;;;;;7.05;2.13;;;;;;;16.00;66.72;101193.00;5033451;28;20203;-51
2022/06/15 00:14:45;;;;;;;4.95;1.70;;;;;;;16.00;66.83;101193.00;5032962;28;20053;-52
2022/06/15 00:17:14;;;;;;;3.65;1.67;;;;;;;16.01;66.78;101188.63;5032605;28;20111;-51
2022/06/15 00:19:45;;;;;;;5.60;1.77;;;;;;;16.01;66.77;101176.41;5029398;28;20053;-51
2022/06/15 00:24:56;;;;;;;4.13;1.50;;;;;;;16.02;66.62;101190.34;5032172;28;20155;-50
2022/06/15 00:27:37;;;;;;;5.35;1.60;;;;;;;16.04;66.84;101180.72;5032508;28;20124;-51
2022/06/15 00:30:08;;;;;;;3.97;1.83;;;;;;;16.05;67.02;101190.28;5032862;28;20079;-50
2022/06/15 00:32:36;;;;;;;3.72;1.60;;;;;;;16.08;66.70;101190.22;5032850;28;20146;-50
2022/06/15 00:37:48;;;;;;;6.32;1.90;;;;;;;16.05;66.82;101193.75;5032511;28;20046;-51
2022/06/15 00:40:16;;;;;;;3.60;1.55;;;;;;;16.05;66.76;101200.75;5032289;28;20057;-53
2022/06/15 00:42:50;;;;;;;5.28;1.98;;;;;;;16.05;66.78;101190.28;5032897;28;20107;-52
2022/06/15 00:45:17;;;;;;;7.57;2.30;;;;;;;16.04;67.02;101188.56;5032223;28;20060;-52
2022/06/15 00:47:55;;;;;;;6.43;1.60;;;;;;;16.05;66.76;101195.50;5032852;28;20049;-50
2022/06/15 00:50:29;;;;;;;3.60;1.90;;;;;;;16.03;66.80;101192.06;5032769;28;20076;-52
2022/06/15 00:53:05;;;;;;;4.13;1.17;;;;;;;15.99;66.74;101182.59;5032648;28;20132;-52
2022/06/15 00:55:38;;;;;;;4.00;1.50;;;;;;;15.95;67.13;101194.00;5032377;28;20103;-54
2022/06/15 00:58:17;;;;;;;4.78;1.77;;;;;;;15.94;67.06;101187.06;5035556;28;20061;-54
2022/06/15 01:00:56;;;;;;;3.08;1.70;;;;;;;15.91;67.35;101187.13;5036279;28;20103;-53
2022/06/15 01:03:25;;;;;;;7.60;1.58;;;;;;;15.90;67.43;101185.41;5036002;28;20393;-52
2022/06/15 01:06:02;;;;;;;3.78;1.90;;;;;;;15.89;67.56;101183.69;5035554;28;20054;-53
2022/06/15 01:08:42;;;;;;;5.05;1.60;;;;;;;15.85;67.29;101187.28;5035896;28;20057;-51
2022/06/15 01:11:25;;;;;;;5.32;1.60;;;;;;;15.84;67.48;101180.34;5036147;28;20065;-50
2022/06/15 01:14:43;;;;;;;6.95;1.55;;;;;;;15.84;67.37;101180.34;5035338;28;20049;-52
2022/06/15 01:17:26;;;;;;;3.28;1.35;;;;;;;15.83;67.54;101183.84;4975180;28;20467;-50
2022/06/15 01:20:19;;;;;;;5.25;1.90;;;;;;;15.83;67.36;101181.22;4974821;28;20482;-50
2022/06/15 01:23:28;;;;;;;2.72;1.13;;;;;;;15.82;67.34;101182.13;4969116;28;20059;-53
2022/06/15 01:26:22;;;;;;;4.60;1.63;;;;;;;15.78;67.50;101176.97;4955406;29;20047;-53
2022/06/15 01:28:55;;;;;;;2.30;1.45;;;;;;;15.78;67.52;101182.19;4955464;29;20054;-50
2022/06/15 01:31:41;;;;;;;5.22;1.67;;;;;;;15.80;67.68;101178.69;4955201;29;20732;-50
2022/06/15 01:34:16;;;;;;;;;;;;;;;15.74;67.83;101180.53;4955579;29;20073;-51
2022/06/15 01:36:55;;;;;;;4.43;1.60;;;;;;;15.78;67.55;101176.97;4955061;29;19933;-50
2022/06/15 01:39:33;;;;;;;3.85;1.50;;;;;;;15.81;67.33;101175.19;4954866;29;20055;-50
2022/06/15 01:42:11;;;;;;;2.88;1.38;;;;;;;15.80;67.27;101178.69;4954886;29;20602;-51
2022/06/15 01:44:48;;;;;;;5.32;1.63;;;;;;;15.80;67.58;101183.91;4958009;28;20047;-50
2022/06/15 01:47:23;;;;;;;2.60;1.50;;;;;;;15.80;67.31;101190.00;4974356;28;20063;-52
2022/06/15 01:52:42;;;;;;;4.43;1.52;;;;;;;15.74;67.90;101177.94;5029751;28;20057;-53
2022/06/15 01:55:15;;;;;;;3.92;2.30;;;;;;;15.74;67.81;101177.06;5035514;28;20049;-52
2022/06/15 01:57:54;;;;;;;4.20;1.48;;;;;;;15.73;67.75;101181.44;5035449;28;20057;-54
2022/06/15 02:00:24;;;;;;;6.57;1.77;;;;;;;15.70;68.15;101180.66;5034429;28;20402;-50
2022/06/15 02:03:14;;;;;;;3.80;1.50;;;;;;;15.69;68.18;101185.00;5035465;28;20466;-53
2022/06/15 02:05:52;;;;;;;7.20;1.77;;;;;;;15.69;67.98;101182.41;5035498;28;20553;-53
2022/06/15 02:08:27;;;;;;;4.70;1.63;;;;;;;15.69;67.91;101186.78;5034584;28;20370;-51
2022/06/15 02:11:05;;;;;;;5.03;1.90;;;;;;;15.69;68.29;101182.41;5035424;28;20049;-52
2022/06/15 02:13:47;;;;;;;4.95;1.55;;;;;;;15.70;67.97;101188.50;5035347;28;20374;-53
2022/06/15 02:16:20;;;;;;;4.65;1.80;;;;;;;15.70;67.97;101191.09;5035008;28;20049;-51
2022/06/15 02:18:58;;;;;;;7.88;2.05;;;;;;;15.69;68.14;101203.31;5027467;28;20099;-50
2022/06/15 02:21:35;;;;;;;4.18;1.80;;;;;;;15.68;68.39;101196.38;5035493;28;20049;-54
2022/06/15 02:24:07;;;;;;;4.15;1.60;;;;;;;15.68;68.22;101196.38;5034019;28;20140;-53
2022/06/15 02:26:39;;;;;;;2.78;1.23;;;;;;;15.70;68.35;101189.34;5034736;28;20136;-51
2022/06/15 02:29:14;;;;;;;3.80;1.42;;;;;;;15.71;68.26;101191.06;5035215;28;20053;-54
2022/06/15 02:31:45;;;;;;;3.92;1.40;;;;;;;15.68;68.04;101185.91;5035256;28;20075;-51
2022/06/15 02:34:15;;;;;;;3.28;1.70;;;;;;;15.68;68.38;101191.13;5035089;28;20085;-52
2022/06/15 02:36:44;;;;;;;4.30;1.70;;;;;;;15.67;68.51;101205.09;5034551;28;20409;-54
2022/06/15 02:39:20;;;;;;;3.95;1.42;;;;;;;15.69;68.20;101200.69;5034563;28;20530;-54
2022/06/15 02:42:00;;;;;;;4.38;1.70;;;;;;;15.70;68.23;101207.66;5014729;28;20061;-54
2022/06/15 02:44:35;;;;;;;6.80;1.98;;;;;;;15.71;68.43;101205.88;5032668;28;20141;-51
2022/06/15 02:47:03;;;;;;;5.60;1.63;;;;;;;15.71;68.34;101209.38;5034861;28;20085;-53
2022/06/15 02:49:39;;;;;;;3.75;1.50;;;;;;;15.76;68.38;101207.50;5034204;28;20445;-53
2022/06/15 02:52:10;;;;;;;5.00;2.50;;;;;;;15.81;68.24;101198.69;5034913;28;20053;-52
2022/06/15 02:54:46;;;;;;;8.88;2.08;;;;;;;15.86;68.37;101205.53;5034534;28;20057;-53
2022/06/15 02:57:16;;;;;;;7.25;2.00;;;;;;;15.89;68.05;101199.38;5034154;28;20699;-53
2022/06/15 02:59:45;;;;;;;3.63;1.80;;;;;;;15.90;68.32;101201.09;5033930;28;20099;-50
2022/06/15 03:02:22;;;;;;;5.60;2.03;;;;;;;15.93;68.21;101211.50;5034192;28;20106;-52
2022/06/15 03:05:09;;;;;;;6.03;1.80;;;;;;;16.00;67.93;101215.69;5034159;28;20104;-52
2022/06/15 03:07:40;;;;;;;3.22;1.70;;;;;;;16.03;68.06;101202.53;5033383;28;20449;-53
2022/06/15 03:12:52;;;;;;;5.95;1.75;;;;;;;16.12;67.74;101214.53;5034093;28;20049;-52
2022/06/15 03:15:21;;;;;;;6.20;1.80;;;;;;;16.15;67.42;101207.50;5034021;28;20053;-53
2022/06/15 03:17:55;;;;;;;5.97;2.03;;;;;;;16.21;67.35;101212.59;5033199;28;20433;-50
2022/06/15 03:20:25;;;;;;;4.63;1.85;;;;;;;16.32;67.23;101221.03;5033042;28;20057;-50
2022/06/15 03:22:53;;;;;;;4.80;2.00;;;;;;;16.41;66.91;101215.56;5034156;28;20057;-51
2022/06/15 03:25:30;;;;;;;4.18;2.20;;;;;;;16.51;66.71;101221.44;5034178;28;20057;-50
2022/06/15 03:28:01;;;;;;;4.07;1.98;;;;;;;16.59;66.54;101222.09;5032680;28;20053;-50
2022/06/15 03:30:32;;;;;;;4.72;1.90;;;;;;;16.65;66.30;101226.34;5033835;28;20049;-50
2022/06/15 03:33:03;;;;;;;4.38;1.60;;;;;;;16.66;66.19;101222.84;5033675;28;20049;-50
2022/06/15 03:35:39;;;;;;;3.58;1.70;;;;;;;16.70;65.95;101222.72;5034125;28;20148;-50
2022/06/15 03:38:08;;;;;;;6.10;1.88;;;;;;;16.74;66.13;101223.50;5033720;28;20546;-50
2022/06/15 03:40:39;;;;;;;4.55;1.33;;;;;;;16.82;65.70;101225.94;5033361;28;20488;-51
2022/06/15 03:43:11;;;;;;;4.38;1.67;;;;;;;16.87;65.28;101214.44;5034176;28;20056;-50
2022/06/15 03:45:39;;;;;;;3.83;1.55;;;;;;;16.91;65.50;101225.69;5033926;28;20057;-53
2022/06/15 03:48:07;;;;;;;4.00;1.40;;;;;;;16.97;65.20;101226.38;5032884;28;20080;-51
2022/06/15 03:50:51;;;;;;;3.17;1.58;;;;;;;17.09;64.89;101219.06;5033196;28;20059;-54
2022/06/15 03:53:27;;;;;;;5.93;2.03;;;;;;;17.23;64.66;101227.44;5033004;28;20132;-53
2022/06/15 03:55:58;;;;;;;8.75;1.80;;;;;;;17.39;64.27;101220.84;5033292;28;20435;-51
2022/06/15 03:58:26;;;;;;;6.28;1.70;;;;;;;17.55;63.68;101224.75;5033474;28;20064;-50
2022/06/15 04:00:54;;;;;;;4.53;1.42;;;;;;;17.74;63.18;101229.50;5028098;28;20049;-51
2022/06/15 04:03:22;;;;;;;7.20;2.10;;;;;;;17.91;62.60;101217.56;5033225;28;20057;-52
2022/06/15 04:06:06;;;;;;;3.15;1.15;;;;;;;18.15;62.15;101228.19;5033158;28;20045;-54
2022/06/15 04:08:37;;;;;;;7.70;1.42;;;;;;;18.35;61.51;101231.06;5033639;28;20116;-53
2022/06/15 04:11:08;;;;;;;4.13;1.38;;;;;;;18.56;60.88;101240.84;5033471;28;20056;-51
2022/06/15 04:13:46;;;;;;;3.25;1.40;;;;;;;18.77;60.34;101230.59;5033100;28;20053;-54
2022/06/15 04:16:24;;;;;;;2.45;1.05;;;;;;;19.00;59.70;101242.91;5033247;28;20057;-52
2022/06/15 04:19:02;;;;;;;4.95;2.00;;;;;;;19.24;59.02;101242.88;5033203;28;20053;-51
2022/06/15 04:21:34;;;;;;;8.75;1.20;;;;;;;19.47;58.27;101230.69;5032233;28;20463;-53
2022/06/15 04:24:02;;;;;;;5.72;1.23;;;;;;;19.70;57.58;101235.09;5032806;28;20053;-52
2022/06/15 04:26:33;;;;;;;2.40;1.08;;;;;;;19.93;57.10;101242.97;5032901;28;20367;-54
2022/06/15 04:29:02;;;;;;;2.30;1.13;;;;;;;20.15;56.25;101237.72;5033326;28;20316;-50
2022/06/15 04:31:39;;;;;;;6.35;1.88;;;;;;;20.34;55.95;101240.50;5032439;28;20123;-51
2022/06/15 04:34:06;;;;;;;4.18;1.30;;;;;;;20.48;55.30;101235.53;5032933;28;20650;-52
2022/06/15 04:36:41;;;;;;;4.72;1.52;;;;;;;20.69;54.88;101239.91;5033257;28;20107;-51
2022/06/15 04:39:15;;;;;;;7.35;1.25;;;;;;;20.91;54.50;101246.91;5031922;28;20715;-51
2022/06/15 04:41:56;;;;;;;4.50;1.35;;;;;;;21.10;53.72;101246.03;5032552;28;20137;-50
2022/06/15 04:44:26;;;;;;;5.15;1.27;;;;;;;21.27;53.25;101245.31;5032862;28;20049;-50
2022/06/15 04:46:58;;;;;;;2.10;0.93;;;;;;;21.42;52.81;101246.44;5033182;28;20057;-51
2022/06/15 04:49:30;;;;;;;3.40;1.42;;;;;;;21.58;52.22;101246.59;5032107;28;20049;-53
2022/06/15 04:52:02;;;;;;;7.18;1.38;;;;;;;21.67;51.82;101257.56;5032530;28;20462;-54
2022/06/15 04:54:32;;;;;;;6.97;1.58;;;;;;;21.68;51.61;101258.41;5033103;28;20107;-50
2022/06/15 04:57:13;;;;;;;5.60;1.08;;;;;;;21.67;51.59;101256.72;5032873;28;20450;-51
2022/06/15 04:59:42;;;;;;;5.28;1.15;;;;;;;21.58;51.70;101259.78;5032640;28;20378;-54
2022/06/15 05:02:19;;;;;;;6.97;1.77;;;;;;;21.53;51.83;101260.00;5032488;28;20347;-54
2022/06/15 05:04:47;;;;;;;3.17;1.63;;;;;;;21.48;51.87;101261.97;5032987;28;20049;-52
2022/06/15 05:07:18;;;;;;;3.53;1.08;;;;;;;21.46;51.60;101260.34;5032829;28;20049;-54
2022/06/15 05:09:47;;;;;;;5.25;1.50;;;;;;;21.44;52.01;101273.59;5032762;28;20162;-51
2022/06/15 05:12:16;;;;;;;5.82;1.70;;;;;;;21.39;51.77;101273.81;5031989;28;20140;-54
2022/06/15 05:14:52;;;;;;;8.48;1.73;;;;;;;21.37;51.79;101280.94;5032836;28;20057;-53
2022/06/15 05:17:23;;;;;;;6.03;1.30;;;;;;;21.31;51.87;101280.31;5032795;28;20064;-52
2022/06/15 05:19:52;;;;;;;4.60;1.13;;;;;;;21.22;51.83;101284.19;5032399;28;20115;-51
2022/06/15 05:22:38;;;;;;;14.20;2.22;;;;;;;21.17;51.90;101285.31;5032595;28;20049;-54
2022/06/15 05:25:13;;;;;;;7.90;1.10;;;;;;;21.10;52.29;101282.94;5032255;28;20049;-50
2022/06/15 05:27:42;;;;;;;;;;;;;;;21.03;51.93;101288.53;5033292;28;20056;-52
2022/06/15 05:30:14;;;;;;;12.43;2.15;;;;;;;21.08;52.50;101284.78;5030162;28;20321;-54
2022/06/15 05:32:42;;;;;;;3.83;0.85;;;;;;;21.14;52.41;101288.94;5034627;28;20050;-51
2022/06/15 05:35:12;;;;;;;5.60;1.20;;;;;;;21.22;51.75;101292.09;5032100;28;20100;-54
2022/06/15 05:37:55;;;;;;;7.63;1.30;;;;;;;21.36;51.51;101297.66;5032674;28;20049;-51
2022/06/15 05:40:23;;;;;;;42.83;3.50;;;;;;;21.52;51.25;101289.94;5031461;28;20076;-52
2022/06/15 05:42:52;;;;;;;8.38;1.55;;;;;;;21.76;50.83;101287.94;5032188;28;20049;-54
2022/06/15 05:45:22;;;;;;;7.20;1.40;;;;;;;22.01;50.32;101283.25;5034766;28;20446;-51
2022/06/15 05:47:52;;;;;;;3.90;1.10;;;;;;;22.25;49.71;101285.69;5035569;28;20049;-51
2022/06/15 05:50:20;;;;;;;5.20;1.20;;;;;;;22.52;49.29;101280.84;5034955;28;20045;-50
2022/06/15 05:53:04;;;;;;;8.45;1.40;;;;;;;22.82;48.01;101297.00;5035650;28;20057;-50
2022/06/15 05:55:40;;;;;;;3.80;1.20;;;;;;;23.03;47.66;101298.56;5034411;28;20149;-51
2022/06/15 05:58:11;;;;;;;6.53;1.02;;;;;;;23.19;47.37;101296.84;5030579;28;20049;-52
2022/06/15 06:00:39;;;;;;;4.53;1.02;;;;;;;23.38;46.81;101298.50;5030923;28;20053;-50
2022/06/15 06:03:16;;;;;;;4.90;1.10;;;;;;;23.48;46.60;101297.13;5035572;28;20128;-53
2022/06/15 06:05:47;;;;;;;4.90;1.10;;;;;;;23.49;46.14;101306.75;5035217;28;20454;-51
2022/06/15 06:08:22;;;;;;;2.70;0.90;;;;;;;23.42;46.05;101308.88;5035103;28;20136;-51
2022/06/15 06:10:52;;;;;;;10.70;1.10;;;;;;;23.47;46.01;101311.28;5035305;28;20374;-50
2022/06/15 06:13:23;;;;;;;3.30;1.17;;;;;;;23.49;45.79;101312.06;5035306;28;20088;-51
2022/06/15 06:15:55;;;;;;;3.50;1.10;;;;;;;23.54;45.59;101307.38;5035307;28;20077;-50
2022/06/15 06:18:24;;;;;;;5.60;1.10;;;;;;;23.62;45.47;101314.94;5034944;28;20435;-54
2022/06/15 06:20:52;;;;;;;9.57;1.80;;;;;;;23.69;45.25;101301.28;5034918;28;20110;-52
2022/06/15 06:23:36;;;;;;;5.75;0.90;;;;;;;23.75;44.49;101316.81;5034548;28;20041;-53
2022/06/15 06:26:07;;;;;;;5.20;1.02;;;;;;;23.76;44.67;101313.25;5034824;28;20064;-52
2022/06/15 06:28:42;;;;;;;4.82;1.13;;;;;;;23.76;44.36;101315.88;5035151;28;20045;-54
2022/06/15 06:31:12;;;;;;;2.30;1.00;;;;;;;23.73;44.26;101323.13;5035188;28;20125;-51
2022/06/15 06:33:40;;;;;;;39.50;3.53;;;;;;;23.72;44.35;101322.28;5035285;28;20430;-55
2022/06/15 06:36:19;;;;;;;20.88;2.63;;;;;;;23.78;44.00;101323.75;5035322;28;20115;-54
2022/06/15 06:38:52;;;;;;;4.07;1.10;;;;;;;23.95;43.67;101322.84;5034590;28;20045;-53
2022/06/15 06:41:22;;;;;;;112.45;7.40;;;;;;;24.06;43.43;101318.66;5033615;28;20064;-52
2022/06/15 06:43:53;;;;;;;138.63;11.63;;;;;;;24.19;43.13;101321.50;5035127;28;20509;-54
2022/06/15 06:46:30;;;;;;;11.52;1.20;;;;;;;24.28;42.50;101325.44;5035099;28;20458;-54
2022/06/15 06:49:00;;;;;;;12.13;1.65;;;;;;;24.38;42.09;101322.19;5034954;28;20425;-52
2022/06/15 06:51:31;;;;;;;2.63;0.95;;;;;;;24.38;41.48;101327.47;5034527;28;20144;-53
2022/06/15 06:54:13;;;;;;;2.53;1.02;;;;;;;24.37;40.76;101328.44;5035143;28;20081;-52
2022/06/15 06:56:42;;;;;;;6.13;1.10;;;;;;;24.37;41.24;101330.22;5034676;28;20095;-54
2022/06/15 06:59:20;;;;;;;7.85;1.35;;;;;;;24.37;40.90;101323.13;5029023;28;20052;-53
2022/06/15 07:01:51;;;;;;;9.40;1.23;;;;;;;24.41;40.72;101327.31;5031785;28;20366;-53
2022/06/15 07:04:21;;;;;;;3.40;0.75;;;;;;;24.43;40.81;101322.78;5033881;28;20107;-54
2022/06/15 07:06:51;;;;;;;192.75;18.98;;;;;;;24.44;41.12;101327.13;5033726;28;20095;-53
2022/06/15 07:09:35;;;;;;;9.57;1.50;;;;;;;24.54;40.68;101327.50;5033909;28;20072;-51
2022/06/15 07:12:07;;;;;;;5.22;1.02;;;;;;;24.56;40.76;101328.25;5033678;28;20124;-54
2022/06/15 07:14:37;;;;;;;8.65;1.00;;;;;;;24.66;40.44;101326.78;5013876;28;20386;-51
2022/06/15 07:17:05;;;;;;;4.25;1.02;;;;;;;24.84;39.65;101330.16;5019295;28;20053;-51
2022/06/15 07:19:35;;;;;;;17.80;1.52;;;;;;;24.96;39.39;101340.03;5032974;28;20111;-51
2022/06/15 07:22:06;;;;;;;11.35;1.50;;;;;;;25.15;38.85;101342.50;5033941;28;20128;-51
2022/06/15 07:24:37;;;;;;;1.25;0.57;;;;;;;25.40;37.98;101339.22;5033884;28;20241;-52
2022/06/15 07:27:05;;;;;;;4.65;0.90;;;;;;;25.56;37.98;101345.34;5034055;28;20119;-51
2022/06/15 07:29:34;;;;;;;5.40;1.00;;;;;;;25.69;37.45;101343.66;5032979;28;20529;-52
2022/06/15 07:32:05;;;;;;;2.55;1.00;;;;;;;25.73;37.50;101342.50;5034002;28;20045;-51
2022/06/15 07:34:37;;;;;;;325.65;28.20;;;;;;;25.88;37.46;101345.16;5032717;28;20144;-51
2022/06/15 07:37:10;;;;;;;16.85;1.50;;;;;;;26.01;37.44;101330.16;5033833;28;20088;-51
2022/06/15 07:39:54;;;;;;;8.77;1.13;;;;;;;26.23;36.65;101346.44;5033136;28;20049;-52
2022/06/15 07:42:24;;;;;;;63.75;7.45;;;;;;;26.40;36.71;101342.72;5033029;28;20080;-55
2022/06/15 07:44:52;;;;;;;3.95;1.00;;;;;;;26.62;36.18;101339.53;5033567;28;20124;-52
2022/06/15 07:50:09;;;;;;;25.15;2.40;;;;;;;26.90;35.90;101338.53;5026426;28;20386;-51
2022/06/15 07:52:39;;;;;;;21.48;1.48;;;;;;;27.04;35.68;101347.31;5033355;28;20045;-52
2022/06/15 07:55:30;;;;;;;4.10;0.80;;;;;;;27.02;34.02;101346.56;5033357;28;20768;-51
2022/06/15 07:57:59;;;;;;;3.42;0.80;;;;;;;27.07;34.88;101348.09;5033035;28;20053;-52
2022/06/15 08:00:29;;;;;;;2.40;0.60;;;;;;;27.21;34.75;101342.69;5033363;28;20084;-53
2022/06/15 08:03:01;;;;;;;67.43;6.18;;;;;;;27.33;34.64;101344.50;5032856;28;20054;-54
2022/06/15 08:05:35;;;;;;;51.67;5.93;;;;;;;27.40;34.71;101350.25;5033322;28;20063;-55
2022/06/15 08:08:12;;;;;;;4.07;0.82;;;;;;;27.38;34.95;101354.84;5031923;28;20053;-51
2022/06/15 08:10:54;;;;;;;3.65;0.80;;;;;;;27.26;34.87;101353.88;5031987;28;20045;-51
2022/06/15 08:13:23;;;;;;;3.28;0.80;;;;;;;27.11;35.70;101357.59;5032552;28;20140;-51
2022/06/15 08:15:58;;;;;;;11.95;1.67;;;;;;;26.90;35.83;101352.69;5033064;28;20056;-51
2022/06/15 08:18:31;;;;;;;3.33;0.75;;;;;;;26.81;35.48;101363.94;5032602;28;20480;-51
2022/06/15 08:21:02;;;;;;;8.00;1.00;;;;;;;26.73;35.54;101355.63;5033212;28;20792;-51
2022/06/15 08:23:33;;;;;;;2.20;0.70;;;;;;;26.60;35.20;101371.53;5031669;28;20129;-51
2022/06/15 08:26:15;;;;;;;4.53;0.80;;;;;;;26.76;35.01;101371.38;5033014;28;20064;-54
2022/06/15 08:28:50;;;;;;;3.17;0.73;;;;;;;26.92;34.64;101352.59;5030597;28;20401;-51
2022/06/15 08:31:23;;;;;;;16.90;1.85;;;;;;;27.16;34.61;101361.63;5027292;28;20046;-52
2022/06/15 08:33:53;;;;;;;2.47;0.82;;;;;;;27.14;34.71;101360.88;5032331;28;20496;-51
2022/06/15 08:36:30;;;;;;;83.63;7.40;;;;;;;27.16;34.44;101363.44;5032369;28;20484;-51
2022/06/15 08:39:01;;;;;;;4.43;0.90;;;;;;;27.12;34.37;101361.94;5032330;28;20106;-55
2022/06/15 08:41:46;;;;;;;3.50;0.70;;;;;;;27.23;33.17;101362.06;5031876;28;20381;-53
2022/06/15 08:44:30;;;;;;;44.40;4.28;;;;;;;27.45;33.51;101361.44;5031441;28;20485;-51
2022/06/15 08:47:15;;;;;;;6.40;0.93;;;;;;;27.62;33.64;101359.38;5012423;28;20429;-54
2022/06/15 08:49:52;;;;;;;5.75;1.00;;;;;;;27.75;33.26;101359.34;5022135;28;20133;-54
2022/06/15 08:52:29;;;;;;;4.47;0.80;;;;;;;27.95;33.23;101371.25;5032725;28;20112;-54
2022/06/15 08:55:02;;;;;;;22.38;3.15;;;;;;;28.56;32.49;101364.16;5033817;28;20053;-53
2022/06/15 09:00:44;;;;;;;622.58;90.90;;;;;;;29.80;30.63;101364.47;5031770;28;20057;-51
2022/06/15 09:03:27;;;;;;;111.97;12.05;;;;;;;29.20;30.74;101370.06;5031453;28;20750;-52
2022/06/15 09:06:09;;;;;;;37.97;3.13;;;;;;;28.79;31.38;101370.47;5032531;28;20433;-51
2022/06/15 09:09:02;;;;;;;9.00;1.33;;;;;;;28.47;31.55;101375.53;5031887;28;20525;-51
2022/06/15 09:11:50;;;;;;;23.42;3.28;;;;;;;28.06;31.82;101379.31;5030165;28;20057;-51
2022/06/15 09:14:32;;;;;;;16.23;1.80;;;;;;;27.84;33.27;101376.50;5015794;28;20393;-51
2022/06/15 09:17:16;;;;;;;3.22;0.95;;;;;;;27.65;33.90;101371.59;5030719;28;20356;-52
2022/06/15 09:19:56;;;;;;;1.17;0.57;;;;;;;27.49;33.30;101379.75;5034637;28;20486;-54
2022/06/15 09:22:32;;;;;;;4.68;1.00;;;;;;;27.29;33.64;101380.28;5036230;28;20069;-54
2022/06/15 09:25:11;;;;;;;64.70;6.97;;;;;;;27.01;33.78;101375.94;5035782;28;20143;-53
2022/06/15 09:27:48;;;;;;;6.07;0.70;;;;;;;26.72;34.50;101364.56;5035989;28;20049;-54
2022/06/15 09:30:35;;;;;;;6.70;1.27;;;;;;;26.62;34.18;101374.97;5036039;28;20056;-52
2022/06/15 09:33:12;;;;;;;41.45;3.38;;;;;;;26.62;34.92;101374.09;5035871;28;20462;-54
2022/06/15 09:36:12;;;;;;;8.27;1.02;;;;;;;26.69;34.33;101375.41;5035955;28;20053;-52
2022/06/15 09:38:41;;;;;;;2.88;0.60;;;;;;;26.73;34.21;101384.88;5035594;28;20434;-53
2022/06/15 09:41:22;;;;;;;2.63;0.70;;;;;;;26.76;33.84;101375.84;5035322;28;20140;-55
2022/06/15 09:44:11;;;;;;;2.63;0.70;;;;;;;26.83;34.07;101378.00;5035861;28;20656;-54
2022/06/15 09:47:00;;;;;;;5.32;1.17;;;;;;;26.86;33.98;101383.13;5035683;28;20050;-54
2022/06/15 09:49:44;;;;;;;3.72;1.00;;;;;;;26.83;34.49;101380.66;5035756;28;20405;-55
2022/06/15 09:52:22;;;;;;;273.92;23.35;;;;;;;26.85;34.58;101378.75;5035496;28;20137;-52
2022/06/15 09:55:01;;;;;;;7.03;1.20;;;;;;;26.95;34.58;101379.84;5035936;28;20057;-52
2022/06/15 09:57:37;;;;;;;99.07;8.38;;;;;;;27.07;34.41;101380.03;5035700;28;20049;-51
2022/06/15 10:00:06;;;;;;;4.53;0.95;;;;;;;27.28;33.95;101378.56;5035762;28;20046;-55
2022/06/15 10:02:42;;;;;;;3.10;0.77;;;;;;;27.42;33.57;101375.81;5035125;28;20061;-52
2022/06/15 10:05:23;;;;;;;28.25;2.03;;;;;;;27.41;32.95;101384.75;5035478;28;20057;-53
2022/06/15 10:07:56;;;;;;;52.75;4.97;;;;;;;27.40;33.85;101391.03;5035566;28;20057;-54
2022/06/15 10:10:28;;;;;;;8.60;0.90;;;;;;;27.37;33.57;101383.25;5035446;28;20053;-55
2022/06/15 10:13:02;;;;;;;163.15;13.85;;;;;;;27.33;33.97;101397.75;5035351;28;20058;-53
2022/06/15 10:15:36;;;;;;;8.68;1.08;;;;;;;27.23;33.75;101388.69;5035237;28;20053;-51
2022/06/15 10:18:31;;;;;;;3.05;0.73;;;;;;;27.21;33.09;101393.25;5033174;28;20046;-51
2022/06/15 10:21:08;;;;;;;2.37;0.60;;;;;;;27.17;33.58;101397.09;5033337;28;20049;-55
2022/06/15 10:23:49;;;;;;;4.25;0.70;;;;;;;27.10;33.53;101395.78;5035275;28;20287;-55
2022/06/15 10:26:36;;;;;;;6.63;0.80;;;;;;;27.06;33.47;101395.16;5035026;28;20111;-54
2022/06/15 10:29:34;;;;;;;26.75;2.67;;;;;;;27.07;33.42;101391.53;5034341;28;20136;-55
2022/06/15 10:32:23;;;;;;;8.05;1.15;;;;;;;27.08;33.44;101389.72;5034418;28;20547;-52
2022/06/15 10:34:57;;;;;;;15.88;1.73;;;;;;;27.12;34.06;101388.56;5034824;28;20057;-51
2022/06/15 10:37:33;;;;;;;34.05;4.07;;;;;;;27.20;34.42;101389.75;5034602;28;20050;-53
2022/06/15 10:40:04;;;;;;;5.97;0.82;;;;;;;27.28;33.74;101398.06;5034216;28;20055;-50
2022/06/15 10:42:50;;;;;;;1.60;0.70;;;;;;;27.44;33.19;101389.88;5034171;28;20531;-52
2022/06/15 10:45:33;;;;;;;9.93;1.17;;;;;;;27.55;33.17;101382.00;5034338;28;20572;-51
2022/06/15 10:48:07;;;;;;;3.75;0.60;;;;;;;27.69;33.59;101398.88;5034496;28;20112;-54
2022/06/15 10:50:42;;;;;;;;;;;;;;;27.70;32.28;101405.91;5034824;28;20257;-51
2022/06/15 10:53:30;;;;;;;51.55;4.65;;;;;;;27.64;31.90;101396.53;5034209;28;19920;-51
2022/06/15 11:04:34;;;;;;;1.58;0.60;;;;;;;27.11;33.71;101365.56;5033957;28;20123;-52
2022/06/15 11:07:29;;;;;;;8.60;1.38;;;;;;;27.12;33.42;101385.91;5033290;28;20057;-55
2022/06/15 11:10:31;;;;;;;141.88;11.98;;;;;;;27.00;33.28;101387.53;5034057;28;20046;-51
2022/06/15 11:13:05;;;;;;;18.75;2.33;;;;;;;26.92;32.75;101392.50;5033712;28;20446;-55
2022/06/15 11:18:36;;;;;;;45.08;4.25;;;;;;;26.77;32.96;101382.88;5033598;28;20068;-54
2022/06/15 11:21:10;;;;;;;3.58;0.80;;;;;;;26.79;32.88;101384.47;5032843;28;20104;-52
2022/06/15 11:24:02;;;;;;;13.27;1.45;;;;;;;26.81;33.25;101379.91;5033696;28;20053;-51
2022/06/15 11:29:41;;;;;;;26.85;3.42;;;;;;;26.75;33.28;101380.31;5033690;28;20198;-54
2022/06/15 11:32:44;;;;;;;7.82;0.98;;;;;;;26.78;32.58;101374.78;5033531;28;20046;-55
2022/06/15 11:35:31;;;;;;;329.50;30.45;;;;;;;26.86;32.78;101367.16;5030503;28;20057;-51
2022/06/15 11:38:16;;;;;;;1152.10;158.52;;;;;;;26.98;33.97;101371.69;5033585;28;20104;-54
2022/06/15 11:40:54;;;;;;;61.25;6.97;;;;;;;27.03;33.24;101372.22;5032707;28;20061;-55
2022/06/15 11:43:25;;;;;;;4.70;1.38;;;;;;;27.06;33.50;101367.69;5032912;28;20071;-53
2022/06/15 11:46:06;;;;;;;2.53;0.73;;;;;;;27.06;33.05;101367.69;5033346;28;20508;-55
2022/06/15 11:49:07;;;;;;;4.38;0.90;;;;;;;27.00;33.15;101364.47;5033647;28;20132;-54
2022/06/15 11:51:54;;;;;;;1.88;0.60;;;;;;;26.99;33.12;101362.75;5033586;28;20470;-55
2022/06/15 11:54:44;;;;;;;3.20;0.70;;;;;;;26.99;33.41;101357.44;5033385;28;20053;-53
2022/06/15 11:57:36;;;;;;;10.75;1.00;;;;;;;27.01;31.94;101360.84;5033656;28;20064;-54
2022/06/15 12:00:40;;;;;;;1.35;0.57;;;;;;;26.97;33.11;101359.31;5033442;28;20053;-54
2022/06/15 12:04:03;;;;;;;26.17;2.30;;;;;;;26.89;33.42;101356.31;5033248;28;20313;-55
2022/06/15 12:06:50;;;;;;;6.45;1.20;;;;;;;26.89;33.43;101364.28;5020742;28;20122;-52
2022/06/15 12:09:33;;;;;;;4.70;1.15;;;;;;;26.76;33.32;101360.75;5033100;28;20111;-54
2022/06/15 12:15:28;;;;;;;55.33;4.90;;;;;;;26.56;33.47;101358.56;5032697;28;20064;-54
2022/06/15 12:18:09;;;;;;;93.72;8.05;;;;;;;26.50;34.41;101356.25;5033222;28;20060;-54
2022/06/15 12:20:55;;;;;;;3.97;0.95;;;;;;;26.38;34.47;101366.75;5032721;28;20158;-52
2022/06/15 12:23:37;;;;;;;4.68;0.80;;;;;;;26.31;34.64;101370.72;5032847;28;20061;-54
2022/06/15 12:26:18;;;;;;;75.07;6.22;;;;;;;26.31;34.76;101356.59;5033092;28;20057;-54
2022/06/15 12:28:53;;;;;;;9.30;1.20;;;;;;;26.29;34.94;101364.66;5032737;28;20053;-50
2022/06/15 12:31:45;;;;;;;8.32;1.77;;;;;;;26.28;34.44;101365.59;5032584;28;20099;-51
2022/06/15 12:34:23;;;;;;;6.22;1.05;;;;;;;26.28;35.07;101365.59;5032998;28;20053;-51
2022/06/15 12:36:59;;;;;;;22.73;2.35;;;;;;;26.32;35.35;101361.78;5033117;28;20465;-51
2022/06/15 12:39:35;;;;;;;17.98;1.90;;;;;;;26.37;35.33;101373.03;5032880;28;20053;-55
2022/06/15 12:42:11;;;;;;;4.85;1.15;;;;;;;26.35;35.76;101371.41;5032534;28;20474;-55
2022/06/15 12:44:51;;;;;;;3.58;1.05;;;;;;;26.32;35.63;101371.56;5032593;28;20056;-55